sensor_id;sensor_type;location;lat;lon;timestamp;temperature;humidity
21944;DHT22;11136;48.778;9.126;2022-10-31T00:00:17;15.50;98.90
21944;DHT22;11136;48.778;9.126;2022-10-31T00:02:43;15.60;99.00
21944;DHT22;11136;48.778;9.126;2022-10-31T00:05:08;15.50;99.00
21944;DHT22;11136;48.778;9.126;2022-10-31T00:07:34;15.40;99.00
21944;DHT22;11136;48.778;9.126;2022-10-31T00:09:59;15.40;99.10
21944;DHT22;11136;48.778;9.126;2022-10-31T00:12:26;15.40;99.20
21944;DHT22;11136;48.778;9.126;2022-10-31T00:14:51;15.40;99.20
21944;DHT22;11136;48.778;9.126;2022-10-31T00:17:17;15.40;99.30
21944;DHT22;11136;48.778;9.126;2022-10-31T00:19:42;15.40;99.40
21944;DHT22;11136;48.778;9.126;2022-10-31T00:22:08;15.30;99.40
21944;DHT22;11136;48.778;9.126;2022-10-31T00:24:34;15.30;99.40
21944;DHT22;11136;48.778;9.126;2022-10-31T00:26:59;15.30;99.40
21944;DHT22;11136;48.778;9.126;2022-10-31T00:29:25;15.20;99.50
21944;DHT22;11136;48.778;9.126;2022-10-31T00:31:51;15.20;99.60
21944;DHT22;11136;48.778;9.126;2022-10-31T00:34:17;15.20;99.60
21944;DHT22;11136;48.778;9.126;2022-10-31T00:36:43;15.20;99.60
21944;DHT22;11136;48.778;9.126;2022-10-31T00:39:08;15.20;99.60
21944;DHT22;11136;48.778;9.126;2022-10-31T00:41:34;15.20;99.70
21944;DHT22;11136;48.778;9.126;2022-10-31T00:43:59;15.20;99.70
21944;DHT22;11136;48.778;9.126;2022-10-31T00:46:25;15.10;99.70
21944;DHT22;11136;48.778;9.126;2022-10-31T00:48:50;15.10;99.80
21944;DHT22;11136;48.778;9.126;2022-10-31T00:51:16;15.10;99.80
21944;DHT22;11136;48.778;9.126;2022-10-31T00:53:41;15.10;99.90
21944;DHT22;11136;48.778;9.126;2022-10-31T00:56:07;15.00;99.90
21944;DHT22;11136;48.778;9.126;2022-10-31T00:58:33;15.10;99.90
21944;DHT22;11136;48.778;9.126;2022-10-31T01:00:58;15.00;99.90
21944;DHT22;11136;48.778;9.126;2022-10-31T01:03:26;15.00;99.90
21944;DHT22;11136;48.778;9.126;2022-10-31T01:06:03;15.00;99.90
21944;DHT22;11136;48.778;9.126;2022-10-31T01:08:29;15.00;99.90
21944;DHT22;11136;48.778;9.126;2022-10-31T01:11:03;15.00;99.90
21944;DHT22;11136;48.778;9.126;2022-10-31T01:13:29;14.90;99.90
21944;DHT22;11136;48.778;9.126;2022-10-31T01:15:59;14.90;99.90
21944;DHT22;11136;48.778;9.126;2022-10-31T01:18:25;14.90;99.90
21944;DHT22;11136;48.778;9.126;2022-10-31T01:21:11;14.90;99.90
21944;DHT22;11136;48.778;9.126;2022-10-31T01:23:37;14.80;99.90
21944;DHT22;11136;48.778;9.126;2022-10-31T01:26:06;14.90;99.90
21944;DHT22;11136;48.778;9.126;2022-10-31T01:28:33;14.80;99.90
21944;DHT22;11136;48.778;9.126;2022-10-31T01:31:04;14.80;99.90
21944;DHT22;11136;48.778;9.126;2022-10-31T01:33:30;14.80;99.90
21944;DHT22;11136;48.778;9.126;2022-10-31T01:35:56;14.80;99.90
21944;DHT22;11136;48.778;9.126;2022-10-31T01:38:21;14.80;99.90
21944;DHT22;11136;48.778;9.126;2022-10-31T01:40:48;14.70;99.90
21944;DHT22;11136;48.778;9.126;2022-10-31T01:43:14;14.70;99.90
21944;DHT22;11136;48.778;9.126;2022-10-31T01:45:46;14.70;99.90
21944;DHT22;11136;48.778;9.126;2022-10-31T01:48:17;14.70;99.90
21944;DHT22;11136;48.778;9.126;2022-10-31T01:50:45;14.70;99.90
21944;DHT22;11136;48.778;9.126;2022-10-31T01:53:12;14.70;99.90
21944;DHT22;11136;48.778;9.126;2022-10-31T01:55:40;14.70;99.90
21944;DHT22;11136;48.778;9.126;2022-10-31T01:58:13;14.70;99.90
21944;DHT22;11136;48.778;9.126;2022-10-31T02:00:42;14.70;99.90
21944;DHT22;11136;48.778;9.126;2022-10-31T02:03:09;14.60;99.90
21944;DHT22;11136;48.778;9.126;2022-10-31T02:05:35;14.60;99.90
21944;DHT22;11136;48.778;9.126;2022-10-31T02:08:14;14.60;99.90
21944;DHT22;11136;48.778;9.126;2022-10-31T02:10:43;14.60;99.90
21944;DHT22;11136;48.778;9.126;2022-10-31T02:13:09;14.60;99.90
21944;DHT22;11136;48.778;9.126;2022-10-31T02:15:36;14.60;99.90
21944;DHT22;11136;48.778;9.126;2022-10-31T02:18:02;14.60;99.90
21944;DHT22;11136;48.778;9.126;2022-10-31T02:20:52;14.60;99.90
21944;DHT22;11136;48.778;9.126;2022-10-31T02:38:36;14.40;99.90
21944;DHT22;11136;48.778;9.126;2022-10-31T02:41:28;14.40;99.90
21944;DHT22;11136;48.778;9.126;2022-10-31T02:47:05;14.30;99.90
21944;DHT22;11136;48.778;9.126;2022-10-31T02:54:45;14.30;99.90
21944;DHT22;11136;48.778;9.126;2022-10-31T02:57:12;14.20;99.90
21944;DHT22;11136;48.778;9.126;2022-10-31T02:59:41;14.30;99.90
21944;DHT22;11136;48.778;9.126;2022-10-31T03:05:00;14.20;99.90
21944;DHT22;11136;48.778;9.126;2022-10-31T03:13:21;14.20;99.90
21944;DHT22;11136;48.778;9.126;2022-10-31T03:15:53;14.10;99.90
21944;DHT22;11136;48.778;9.126;2022-10-31T03:18:32;14.10;99.90
21944;DHT22;11136;48.778;9.126;2022-10-31T03:21:12;14.10;99.90
21944;DHT22;11136;48.778;9.126;2022-10-31T03:23:40;14.10;99.90
21944;DHT22;11136;48.778;9.126;2022-10-31T03:26:08;14.00;99.90
21944;DHT22;11136;48.778;9.126;2022-10-31T03:28:59;14.00;99.90
21944;DHT22;11136;48.778;9.126;2022-10-31T03:31:27;14.00;99.90
21944;DHT22;11136;48.778;9.126;2022-10-31T03:33:56;14.00;99.90
21944;DHT22;11136;48.778;9.126;2022-10-31T03:36:25;14.00;99.90
21944;DHT22;11136;48.778;9.126;2022-10-31T03:38:51;14.00;99.90
21944;DHT22;11136;48.778;9.126;2022-10-31T03:41:21;14.00;99.90
21944;DHT22;11136;48.778;9.126;2022-10-31T03:43:54;14.00;99.90
21944;DHT22;11136;48.778;9.126;2022-10-31T03:46:21;14.00;99.90
21944;DHT22;11136;48.778;9.126;2022-10-31T03:48:47;14.20;99.90
21944;DHT22;11136;48.778;9.126;2022-10-31T03:51:25;14.00;99.90
21944;DHT22;11136;48.778;9.126;2022-10-31T03:56:27;13.90;99.90
21944;DHT22;11136;48.778;9.126;2022-10-31T03:59:02;13.90;99.90
21944;DHT22;11136;48.778;9.126;2022-10-31T04:01:31;13.90;99.90
21944;DHT22;11136;48.778;9.126;2022-10-31T04:03:58;13.90;99.90
21944;DHT22;11136;48.778;9.126;2022-10-31T04:06:24;13.90;99.90
21944;DHT22;11136;48.778;9.126;2022-10-31T04:08:55;13.80;99.90
21944;DHT22;11136;48.778;9.126;2022-10-31T04:11:25;13.80;99.90
21944;DHT22;11136;48.778;9.126;2022-10-31T04:13:53;13.80;99.90
21944;DHT22;11136;48.778;9.126;2022-10-31T04:16:20;13.80;99.90
21944;DHT22;11136;48.778;9.126;2022-10-31T04:18:47;13.80;99.90
21944;DHT22;11136;48.778;9.126;2022-10-31T04:21:12;13.80;99.90
21944;DHT22;11136;48.778;9.126;2022-10-31T04:23:38;13.70;99.90
21944;DHT22;11136;48.778;9.126;2022-10-31T04:26:03;13.70;99.90
21944;DHT22;11136;48.778;9.126;2022-10-31T04:28:29;13.70;99.90
21944;DHT22;11136;48.778;9.126;2022-10-31T04:30:55;13.70;99.90
21944;DHT22;11136;48.778;9.126;2022-10-31T04:33:20;13.70;99.90
21944;DHT22;11136;48.778;9.126;2022-10-31T04:35:47;13.70;99.90
21944;DHT22;11136;48.778;9.126;2022-10-31T04:38:12;13.70;99.90
21944;DHT22;11136;48.778;9.126;2022-10-31T04:40:38;13.60;99.90
21944;DHT22;11136;48.778;9.126;2022-10-31T04:43:03;13.60;99.90
21944;DHT22;11136;48.778;9.126;2022-10-31T04:45:29;13.60;99.90
21944;DHT22;11136;48.778;9.126;2022-10-31T04:47:54;13.60;99.90
21944;DHT22;11136;48.778;9.126;2022-10-31T04:50:20;13.70;99.90
21944;DHT22;11136;48.778;9.126;2022-10-31T04:52:46;13.50;99.90
21944;DHT22;11136;48.778;9.126;2022-10-31T04:55:12;13.50;99.90
21944;DHT22;11136;48.778;9.126;2022-10-31T04:57:45;13.50;99.90
21944;DHT22;11136;48.778;9.126;2022-10-31T05:00:13;13.50;99.90
21944;DHT22;11136;48.778;9.126;2022-10-31T05:02:53;13.50;99.90
21944;DHT22;11136;48.778;9.126;2022-10-31T05:05:27;13.50;99.90
21944;DHT22;11136;48.778;9.126;2022-10-31T05:07:53;13.50;99.90
21944;DHT22;11136;48.778;9.126;2022-10-31T05:10:22;13.40;99.90
21944;DHT22;11136;48.778;9.126;2022-10-31T05:12:56;13.40;99.90
21944;DHT22;11136;48.778;9.126;2022-10-31T05:15:23;13.40;99.90
21944;DHT22;11136;48.778;9.126;2022-10-31T05:17:50;13.40;99.90
21944;DHT22;11136;48.778;9.126;2022-10-31T05:20:17;13.40;99.90
21944;DHT22;11136;48.778;9.126;2022-10-31T05:22:45;13.30;99.90
21944;DHT22;11136;48.778;9.126;2022-10-31T05:25:11;13.30;99.90
21944;DHT22;11136;48.778;9.126;2022-10-31T05:27:41;13.30;99.90
21944;DHT22;11136;48.778;9.126;2022-10-31T05:30:08;13.30;99.90
21944;DHT22;11136;48.778;9.126;2022-10-31T05:32:41;13.30;99.90
21944;DHT22;11136;48.778;9.126;2022-10-31T05:35:09;13.30;99.90
21944;DHT22;11136;48.778;9.126;2022-10-31T05:37:35;13.20;99.90
21944;DHT22;11136;48.778;9.126;2022-10-31T05:40:05;13.20;99.90
21944;DHT22;11136;48.778;9.126;2022-10-31T05:42:31;13.20;99.90
21944;DHT22;11136;48.778;9.126;2022-10-31T05:44:56;13.20;99.90
21944;DHT22;11136;48.778;9.126;2022-10-31T05:47:22;13.20;99.90
21944;DHT22;11136;48.778;9.126;2022-10-31T05:49:48;13.20;99.90
21944;DHT22;11136;48.778;9.126;2022-10-31T05:52:13;13.10;99.90
21944;DHT22;11136;48.778;9.126;2022-10-31T05:54:39;13.10;99.90
21944;DHT22;11136;48.778;9.126;2022-10-31T05:57:04;13.10;99.90
21944;DHT22;11136;48.778;9.126;2022-10-31T05:59:30;13.10;99.90
21944;DHT22;11136;48.778;9.126;2022-10-31T06:01:56;13.10;99.90
21944;DHT22;11136;48.778;9.126;2022-10-31T06:04:21;13.10;99.90
21944;DHT22;11136;48.778;9.126;2022-10-31T06:06:47;13.00;99.90
21944;DHT22;11136;48.778;9.126;2022-10-31T06:09:12;13.00;99.90
21944;DHT22;11136;48.778;9.126;2022-10-31T06:11:38;13.00;99.90
21944;DHT22;11136;48.778;9.126;2022-10-31T06:14:04;13.00;99.90
21944;DHT22;11136;48.778;9.126;2022-10-31T06:16:30;13.00;99.90
21944;DHT22;11136;48.778;9.126;2022-10-31T06:18:55;13.00;99.90
21944;DHT22;11136;48.778;9.126;2022-10-31T06:21:21;13.00;99.90
21944;DHT22;11136;48.778;9.126;2022-10-31T06:23:47;13.00;99.90
21944;DHT22;11136;48.778;9.126;2022-10-31T06:26:12;13.00;99.90
21944;DHT22;11136;48.778;9.126;2022-10-31T06:28:38;13.00;99.90
21944;DHT22;11136;48.778;9.126;2022-10-31T06:31:03;13.00;99.90
21944;DHT22;11136;48.778;9.126;2022-10-31T06:33:29;13.00;99.90
21944;DHT22;11136;48.778;9.126;2022-10-31T06:35:55;13.00;99.90
21944;DHT22;11136;48.778;9.126;2022-10-31T06:38:20;13.00;99.90
21944;DHT22;11136;48.778;9.126;2022-10-31T06:40:46;13.00;99.90
21944;DHT22;11136;48.778;9.126;2022-10-31T06:43:11;13.00;99.90
21944;DHT22;11136;48.778;9.126;2022-10-31T06:45:37;13.00;99.90
21944;DHT22;11136;48.778;9.126;2022-10-31T06:48:03;13.00;99.90
21944;DHT22;11136;48.778;9.126;2022-10-31T06:50:30;13.10;99.90
21944;DHT22;11136;48.778;9.126;2022-10-31T06:52:57;13.00;99.90
21944;DHT22;11136;48.778;9.126;2022-10-31T06:55:24;13.10;99.90
21944;DHT22;11136;48.778;9.126;2022-10-31T06:57:54;13.10;99.90
21944;DHT22;11136;48.778;9.126;2022-10-31T07:00:20;13.10;99.90
21944;DHT22;11136;48.778;9.126;2022-10-31T07:02:56;13.10;99.90
21944;DHT22;11136;48.778;9.126;2022-10-31T07:05:21;13.10;99.90
21944;DHT22;11136;48.778;9.126;2022-10-31T07:07:47;13.10;99.90
21944;DHT22;11136;48.778;9.126;2022-10-31T07:10:12;13.10;99.90
21944;DHT22;11136;48.778;9.126;2022-10-31T07:12:38;13.20;99.90
21944;DHT22;11136;48.778;9.126;2022-10-31T07:15:04;13.20;99.90
21944;DHT22;11136;48.778;9.126;2022-10-31T07:17:30;13.20;99.90
21944;DHT22;11136;48.778;9.126;2022-10-31T07:19:56;13.30;99.90
21944;DHT22;11136;48.778;9.126;2022-10-31T07:22:21;13.30;99.90
21944;DHT22;11136;48.778;9.126;2022-10-31T07:24:47;13.30;99.90
21944;DHT22;11136;48.778;9.126;2022-10-31T07:27:12;13.40;99.90
21944;DHT22;11136;48.778;9.126;2022-10-31T07:29:38;13.40;99.90
21944;DHT22;11136;48.778;9.126;2022-10-31T07:32:03;13.40;99.90
21944;DHT22;11136;48.778;9.126;2022-10-31T07:34:29;13.50;99.90
21944;DHT22;11136;48.778;9.126;2022-10-31T07:36:55;13.60;99.90
21944;DHT22;11136;48.778;9.126;2022-10-31T07:39:20;13.60;99.90
21944;DHT22;11136;48.778;9.126;2022-10-31T07:41:46;13.70;99.90
21944;DHT22;11136;48.778;9.126;2022-10-31T07:44:11;13.80;99.90
21944;DHT22;11136;48.778;9.126;2022-10-31T07:46:37;13.80;99.90
21944;DHT22;11136;48.778;9.126;2022-10-31T07:49:02;13.80;99.90
21944;DHT22;11136;48.778;9.126;2022-10-31T07:51:28;14.10;99.90
21944;DHT22;11136;48.778;9.126;2022-10-31T07:53:54;14.10;99.90
21944;DHT22;11136;48.778;9.126;2022-10-31T07:56:19;14.20;99.90
21944;DHT22;11136;48.778;9.126;2022-10-31T07:58:45;14.30;99.90
21944;DHT22;11136;48.778;9.126;2022-10-31T08:01:10;14.30;99.90
21944;DHT22;11136;48.778;9.126;2022-10-31T08:03:36;14.60;99.90
21944;DHT22;11136;48.778;9.126;2022-10-31T08:06:01;14.60;99.90
21944;DHT22;11136;48.778;9.126;2022-10-31T08:08:27;14.80;99.90
21944;DHT22;11136;48.778;9.126;2022-10-31T08:10:53;15.30;99.90
21944;DHT22;11136;48.778;9.126;2022-10-31T08:13:19;15.00;99.90
21944;DHT22;11136;48.778;9.126;2022-10-31T08:15:45;15.00;99.90
21944;DHT22;11136;48.778;9.126;2022-10-31T08:18:15;15.10;99.90
21944;DHT22;11136;48.778;9.126;2022-10-31T08:20:42;15.20;99.90
21944;DHT22;11136;48.778;9.126;2022-10-31T08:23:09;15.20;99.90
21944;DHT22;11136;48.778;9.126;2022-10-31T08:25:36;15.20;99.90
21944;DHT22;11136;48.778;9.126;2022-10-31T08:28:02;15.30;99.90
21944;DHT22;11136;48.778;9.126;2022-10-31T08:30:29;15.30;99.90
21944;DHT22;11136;48.778;9.126;2022-10-31T08:33:06;15.40;99.90
21944;DHT22;11136;48.778;9.126;2022-10-31T08:35:33;15.50;99.90
21944;DHT22;11136;48.778;9.126;2022-10-31T08:37:59;15.50;99.90
21944;DHT22;11136;48.778;9.126;2022-10-31T08:40:26;15.60;99.90
21944;DHT22;11136;48.778;9.126;2022-10-31T08:43:00;15.60;99.90
21944;DHT22;11136;48.778;9.126;2022-10-31T08:45:26;15.70;99.90
21944;DHT22;11136;48.778;9.126;2022-10-31T08:47:52;15.70;99.90
21944;DHT22;11136;48.778;9.126;2022-10-31T08:50:17;15.80;99.90
21944;DHT22;11136;48.778;9.126;2022-10-31T08:52:43;15.80;99.90
21944;DHT22;11136;48.778;9.126;2022-10-31T08:55:09;15.90;99.90
21944;DHT22;11136;48.778;9.126;2022-10-31T08:57:34;15.90;99.90
21944;DHT22;11136;48.778;9.126;2022-10-31T09:00:00;16.00;99.90
21944;DHT22;11136;48.778;9.126;2022-10-31T09:02:26;16.10;99.90
21944;DHT22;11136;48.778;9.126;2022-10-31T09:04:51;16.20;99.90
21944;DHT22;11136;48.778;9.126;2022-10-31T09:07:17;16.20;99.90
21944;DHT22;11136;48.778;9.126;2022-10-31T09:09:42;16.20;99.90
21944;DHT22;11136;48.778;9.126;2022-10-31T09:12:08;16.30;99.90
21944;DHT22;11136;48.778;9.126;2022-10-31T09:14:33;16.40;99.90
21944;DHT22;11136;48.778;9.126;2022-10-31T09:16:59;16.40;99.90
21944;DHT22;11136;48.778;9.126;2022-10-31T09:19:24;16.60;99.90
21944;DHT22;11136;48.778;9.126;2022-10-31T09:21:53;16.50;99.90
21944;DHT22;11136;48.778;9.126;2022-10-31T09:24:19;16.50;99.90
21944;DHT22;11136;48.778;9.126;2022-10-31T09:26:45;16.50;99.90
21944;DHT22;11136;48.778;9.126;2022-10-31T09:29:11;16.60;99.90
21944;DHT22;11136;48.778;9.126;2022-10-31T09:31:36;16.70;99.90
21944;DHT22;11136;48.778;9.126;2022-10-31T09:34:02;16.70;99.90
21944;DHT22;11136;48.778;9.126;2022-10-31T09:36:27;16.70;99.90
21944;DHT22;11136;48.778;9.126;2022-10-31T09:38:53;16.70;99.90
21944;DHT22;11136;48.778;9.126;2022-10-31T09:47:29;16.90;99.90
21944;DHT22;11136;48.778;9.126;2022-10-31T09:50:01;16.90;99.90
21944;DHT22;11136;48.778;9.126;2022-10-31T09:52:29;16.90;99.90
21944;DHT22;11136;48.778;9.126;2022-10-31T09:55:21;17.00;99.90
21944;DHT22;11136;48.778;9.126;2022-10-31T09:57:48;17.00;99.90
21944;DHT22;11136;48.778;9.126;2022-10-31T10:00:20;17.10;99.90
21944;DHT22;11136;48.778;9.126;2022-10-31T10:05:41;17.10;99.90
21944;DHT22;11136;48.778;9.126;2022-10-31T10:08:19;17.20;99.90
21944;DHT22;11136;48.778;9.126;2022-10-31T10:13:53;17.30;99.90
21944;DHT22;11136;48.778;9.126;2022-10-31T10:30:20;17.60;99.90
21944;DHT22;11136;48.778;9.126;2022-10-31T10:32:50;17.70;99.90
21944;DHT22;11136;48.778;9.126;2022-10-31T10:35:27;17.80;99.90
21944;DHT22;11136;48.778;9.126;2022-10-31T10:38:12;17.80;99.90
21944;DHT22;11136;48.778;9.126;2022-10-31T10:40:39;17.90;99.90
21944;DHT22;11136;48.778;9.126;2022-10-31T10:54:45;18.20;99.90
21944;DHT22;11136;48.778;9.126;2022-10-31T10:59:56;18.30;99.90
21944;DHT22;11136;48.778;9.126;2022-10-31T11:02:25;18.30;99.90
21944;DHT22;11136;48.778;9.126;2022-10-31T11:04:55;18.40;99.90
21944;DHT22;11136;48.778;9.126;2022-10-31T11:07:22;18.40;99.90
21944;DHT22;11136;48.778;9.126;2022-10-31T11:09:48;18.60;99.90
21944;DHT22;11136;48.778;9.126;2022-10-31T11:14:49;18.50;99.90
21944;DHT22;11136;48.778;9.126;2022-10-31T11:17:33;18.50;99.90
21944;DHT22;11136;48.778;9.126;2022-10-31T11:20:04;18.60;99.90
21944;DHT22;11136;48.778;9.126;2022-10-31T11:22:30;18.60;99.90
21944;DHT22;11136;48.778;9.126;2022-10-31T11:24:55;18.70;99.90
21944;DHT22;11136;48.778;9.126;2022-10-31T11:27:23;18.70;99.90
21944;DHT22;11136;48.778;9.126;2022-10-31T11:29:49;18.80;99.90
21944;DHT22;11136;48.778;9.126;2022-10-31T11:32:23;18.90;99.90
21944;DHT22;11136;48.778;9.126;2022-10-31T11:35:01;19.20;99.90
21944;DHT22;11136;48.778;9.126;2022-10-31T11:37:31;19.10;99.90
21944;DHT22;11136;48.778;9.126;2022-10-31T11:40:04;19.20;99.80
21944;DHT22;11136;48.778;9.126;2022-10-31T11:42:37;19.30;99.60
21944;DHT22;11136;48.778;9.126;2022-10-31T11:45:15;19.30;99.50
21944;DHT22;11136;48.778;9.126;2022-10-31T11:47:45;19.40;99.50
21944;DHT22;11136;48.778;9.126;2022-10-31T11:50:21;19.40;99.30
21944;DHT22;11136;48.778;9.126;2022-10-31T11:52:47;19.50;99.10
21944;DHT22;11136;48.778;9.126;2022-10-31T11:55:30;19.60;99.10
21944;DHT22;11136;48.778;9.126;2022-10-31T11:57:56;19.60;98.80
21944;DHT22;11136;48.778;9.126;2022-10-31T12:00:36;19.60;98.80
21944;DHT22;11136;48.778;9.126;2022-10-31T12:03:26;19.60;98.50
21944;DHT22;11136;48.778;9.126;2022-10-31T12:06:02;19.60;98.40
21944;DHT22;11136;48.778;9.126;2022-10-31T12:08:34;19.60;98.40
21944;DHT22;11136;48.778;9.126;2022-10-31T12:14:25;19.70;98.40
21944;DHT22;11136;48.778;9.126;2022-10-31T12:25:17;19.90;98.80
21944;DHT22;11136;48.778;9.126;2022-10-31T12:28:04;19.90;98.70
21944;DHT22;11136;48.778;9.126;2022-10-31T12:30:41;20.00;98.70
21944;DHT22;11136;48.778;9.126;2022-10-31T12:33:15;20.10;98.60
21944;DHT22;11136;48.778;9.126;2022-10-31T12:47:27;20.10;98.10
21944;DHT22;11136;48.778;9.126;2022-10-31T12:50:06;20.00;98.10
21944;DHT22;11136;48.778;9.126;2022-10-31T12:55:45;19.90;97.80
21944;DHT22;11136;48.778;9.126;2022-10-31T12:58:21;19.90;97.90
21944;DHT22;11136;48.778;9.126;2022-10-31T13:00:51;19.80;98.00
21944;DHT22;11136;48.778;9.126;2022-10-31T13:05:48;19.80;98.10
21944;DHT22;11136;48.778;9.126;2022-10-31T13:08:16;19.70;97.90
21944;DHT22;11136;48.778;9.126;2022-10-31T13:16:33;19.70;98.00
21944;DHT22;11136;48.778;9.126;2022-10-31T13:21:37;19.60;98.00
21944;DHT22;11136;48.778;9.126;2022-10-31T13:24:10;19.60;98.10
21944;DHT22;11136;48.778;9.126;2022-10-31T13:26:47;19.60;98.00
21944;DHT22;11136;48.778;9.126;2022-10-31T13:31:52;19.60;98.20
21944;DHT22;11136;48.778;9.126;2022-10-31T13:34:34;19.50;98.20
21944;DHT22;11136;48.778;9.126;2022-10-31T13:37:09;19.60;98.20
21944;DHT22;11136;48.778;9.126;2022-10-31T13:40:11;19.60;98.30
21944;DHT22;11136;48.778;9.126;2022-10-31T13:45:52;19.90;98.90
21944;DHT22;11136;48.778;9.126;2022-10-31T13:51:31;20.30;98.50
21944;DHT22;11136;48.778;9.126;2022-10-31T13:54:24;20.40;98.20
21944;DHT22;11136;48.778;9.126;2022-10-31T13:56:56;20.50;97.90
21944;DHT22;11136;48.778;9.126;2022-10-31T13:59:24;20.50;97.90
21944;DHT22;11136;48.778;9.126;2022-10-31T14:01:56;20.50;97.80
21944;DHT22;11136;48.778;9.126;2022-10-31T14:09:26;20.60;97.50
21944;DHT22;11136;48.778;9.126;2022-10-31T14:11:53;20.50;97.40
21944;DHT22;11136;48.778;9.126;2022-10-31T14:14:19;20.50;97.50
21944;DHT22;11136;48.778;9.126;2022-10-31T14:16:46;20.50;97.40
21944;DHT22;11136;48.778;9.126;2022-10-31T14:19:19;20.50;97.30
21944;DHT22;11136;48.778;9.126;2022-10-31T14:22:20;20.60;97.30
21944;DHT22;11136;48.778;9.126;2022-10-31T14:24:46;20.60;97.20
21944;DHT22;11136;48.778;9.126;2022-10-31T14:29:51;20.60;97.20
21944;DHT22;11136;48.778;9.126;2022-10-31T14:32:24;20.60;97.20
21944;DHT22;11136;48.778;9.126;2022-10-31T14:34:54;20.60;97.30
21944;DHT22;11136;48.778;9.126;2022-10-31T14:40:22;20.50;97.50
21944;DHT22;11136;48.778;9.126;2022-10-31T14:46:01;20.40;99.30
21944;DHT22;11136;48.778;9.126;2022-10-31T14:51:20;20.20;99.10
21944;DHT22;11136;48.778;9.126;2022-10-31T14:53:51;20.10;99.40
21944;DHT22;11136;48.778;9.126;2022-10-31T14:56:27;20.00;99.80
21944;DHT22;11136;48.778;9.126;2022-10-31T14:58:59;19.90;99.60
21944;DHT22;11136;48.778;9.126;2022-10-31T15:01:28;19.90;99.90
21944;DHT22;11136;48.778;9.126;2022-10-31T15:04:02;19.90;99.80
21944;DHT22;11136;48.778;9.126;2022-10-31T15:06:35;19.80;99.90
21944;DHT22;11136;48.778;9.126;2022-10-31T15:09:03;19.80;99.90
21944;DHT22;11136;48.778;9.126;2022-10-31T15:11:37;19.80;99.90
21944;DHT22;11136;48.778;9.126;2022-10-31T15:14:35;19.80;99.90
21944;DHT22;11136;48.778;9.126;2022-10-31T15:17:04;19.60;99.90
21944;DHT22;11136;48.778;9.126;2022-10-31T15:19:32;19.50;99.90
21944;DHT22;11136;48.778;9.126;2022-10-31T15:21:59;19.50;99.90
21944;DHT22;11136;48.778;9.126;2022-10-31T15:24:32;19.30;99.90
21944;DHT22;11136;48.778;9.126;2022-10-31T15:26:59;19.30;99.90
21944;DHT22;11136;48.778;9.126;2022-10-31T15:29:27;19.20;99.90
21944;DHT22;11136;48.778;9.126;2022-10-31T15:31:54;19.10;99.90
21944;DHT22;11136;48.778;9.126;2022-10-31T15:34:33;19.10;99.90
21944;DHT22;11136;48.778;9.126;2022-10-31T15:37:01;19.00;99.90
21944;DHT22;11136;48.778;9.126;2022-10-31T15:39:26;18.90;99.90
21944;DHT22;11136;48.778;9.126;2022-10-31T15:41:55;18.90;99.90
21944;DHT22;11136;48.778;9.126;2022-10-31T15:44:28;18.80;99.90
21944;DHT22;11136;48.778;9.126;2022-10-31T15:47:00;18.80;99.90
21944;DHT22;11136;48.778;9.126;2022-10-31T15:49:27;18.70;99.90
21944;DHT22;11136;48.778;9.126;2022-10-31T15:51:54;18.70;99.90
21944;DHT22;11136;48.778;9.126;2022-10-31T15:54:20;18.60;99.90
21944;DHT22;11136;48.778;9.126;2022-10-31T15:56:46;18.60;99.90
21944;DHT22;11136;48.778;9.126;2022-10-31T15:59:22;18.60;99.90
21944;DHT22;11136;48.778;9.126;2022-10-31T16:02:03;18.50;99.90
21944;DHT22;11136;48.778;9.126;2022-10-31T16:04:29;18.50;99.90
21944;DHT22;11136;48.778;9.126;2022-10-31T16:07:11;18.40;99.90
21944;DHT22;11136;48.778;9.126;2022-10-31T16:12:22;18.30;99.90
21944;DHT22;11136;48.778;9.126;2022-10-31T16:14:52;18.30;99.90
21944;DHT22;11136;48.778;9.126;2022-10-31T16:17:21;18.20;99.90
21944;DHT22;11136;48.778;9.126;2022-10-31T16:22:35;18.10;99.90
21944;DHT22;11136;48.778;9.126;2022-10-31T16:25:12;18.10;99.90
21944;DHT22;11136;48.778;9.126;2022-10-31T16:27:40;18.00;99.90
21944;DHT22;11136;48.778;9.126;2022-10-31T16:30:43;17.90;99.90
21944;DHT22;11136;48.778;9.126;2022-10-31T16:33:36;17.90;99.90
21944;DHT22;11136;48.778;9.126;2022-10-31T16:38:53;17.70;99.90
21944;DHT22;11136;48.778;9.126;2022-10-31T16:41:19;17.70;99.90
21944;DHT22;11136;48.778;9.126;2022-10-31T16:43:45;17.60;99.90
21944;DHT22;11136;48.778;9.126;2022-10-31T16:46:26;17.60;99.90
21944;DHT22;11136;48.778;9.126;2022-10-31T16:48:53;17.50;99.90
21944;DHT22;11136;48.778;9.126;2022-10-31T16:51:19;17.50;99.90
21944;DHT22;11136;48.778;9.126;2022-10-31T16:53:45;17.40;99.90
21944;DHT22;11136;48.778;9.126;2022-10-31T16:56:21;17.40;99.90
21944;DHT22;11136;48.778;9.126;2022-10-31T16:58:49;17.30;99.90
21944;DHT22;11136;48.778;9.126;2022-10-31T17:01:15;17.30;99.90
21944;DHT22;11136;48.778;9.126;2022-10-31T17:03:41;17.30;99.90
21944;DHT22;11136;48.778;9.126;2022-10-31T17:06:13;17.30;99.90
21944;DHT22;11136;48.778;9.126;2022-10-31T17:08:39;17.20;99.90
21944;DHT22;11136;48.778;9.126;2022-10-31T17:11:05;17.20;99.90
21944;DHT22;11136;48.778;9.126;2022-10-31T17:13:33;17.10;99.90
21944;DHT22;11136;48.778;9.126;2022-10-31T17:16:01;17.10;99.90
21944;DHT22;11136;48.778;9.126;2022-10-31T17:18:28;17.10;99.90
21944;DHT22;11136;48.778;9.126;2022-10-31T17:21:00;17.00;99.90
21944;DHT22;11136;48.778;9.126;2022-10-31T17:23:26;17.00;99.90
21944;DHT22;11136;48.778;9.126;2022-10-31T17:25:53;17.00;99.90
21944;DHT22;11136;48.778;9.126;2022-10-31T17:28:18;16.90;99.90
21944;DHT22;11136;48.778;9.126;2022-10-31T17:30:45;16.90;99.90
21944;DHT22;11136;48.778;9.126;2022-10-31T17:33:15;16.80;99.90
21944;DHT22;11136;48.778;9.126;2022-10-31T17:35:41;16.80;99.90
21944;DHT22;11136;48.778;9.126;2022-10-31T17:38:09;16.70;99.90
21944;DHT22;11136;48.778;9.126;2022-10-31T17:40:37;16.70;99.90
21944;DHT22;11136;48.778;9.126;2022-10-31T17:43:02;16.60;99.90
21944;DHT22;11136;48.778;9.126;2022-10-31T17:45:28;16.60;99.90
21944;DHT22;11136;48.778;9.126;2022-10-31T17:47:54;16.60;99.90
21944;DHT22;11136;48.778;9.126;2022-10-31T17:50:22;16.60;99.90
21944;DHT22;11136;48.778;9.126;2022-10-31T17:52:48;16.60;99.90
21944;DHT22;11136;48.778;9.126;2022-10-31T17:55:15;16.50;99.90
21944;DHT22;11136;48.778;9.126;2022-10-31T17:57:41;16.50;99.90
21944;DHT22;11136;48.778;9.126;2022-10-31T18:00:12;16.50;99.90
21944;DHT22;11136;48.778;9.126;2022-10-31T18:02:38;16.50;99.90
21944;DHT22;11136;48.778;9.126;2022-10-31T18:05:05;16.40;99.90
21944;DHT22;11136;48.778;9.126;2022-10-31T18:07:32;16.40;99.90
21944;DHT22;11136;48.778;9.126;2022-10-31T18:09:58;16.40;99.90